Time;durP1;ratioP1;P1;durP2;ratioP2;P2;SDS_P1;SDS_P2;PMS_P1;PMS_P2;Temp;Humidity;BMP_temperature;BMP_pressure;BME280_temperature;BME280_humidity;BME280_pressure;Samples;Min_cycle;Max_cycle;Signal;HPM_P1;HPM_P2
2022/01/29 00:00:38;;;;;;;34.22;10.10;;;6.80;99.90;;;;;;5032784;28;20055;-64
2022/01/29 00:03:04;;;;;;;22.17;9.57;;;6.80;99.90;;;;;;5064221;28;20127;-64
2022/01/29 00:05:30;;;;;;;37.70;10.60;;;6.80;99.90;;;;;;5065779;28;20467;-64
2022/01/29 00:07:56;;;;;;;28.35;9.40;;;6.80;99.90;;;;;;5056625;28;20373;-64
2022/01/29 00:10:21;;;;;;;31.10;10.30;;;6.80;99.90;;;;;;5058265;28;20033;-64
2022/01/29 00:12:47;;;;;;;26.90;8.70;;;6.80;99.90;;;;;;5059593;28;20048;-64
2022/01/29 00:15:13;;;;;;;33.20;10.75;;;6.90;99.90;;;;;;5065260;28;20047;-64
2022/01/29 00:17:39;;;;;;;31.60;9.93;;;6.90;99.90;;;;;;5054785;28;20536;-64
2022/01/29 00:20:05;;;;;;;27.33;8.73;;;6.90;99.90;;;;;;5060988;28;20514;-64
2022/01/29 00:22:31;;;;;;;27.42;10.45;;;6.90;99.90;;;;;;5066020;28;20085;-64
2022/01/29 00:24:58;;;;;;;37.00;10.55;;;6.90;99.90;;;;;;5043592;28;20503;-64
2022/01/29 00:27:26;;;;;;;19.00;8.52;;;6.90;99.90;;;;;;5060996;28;20055;-64
2022/01/29 00:29:52;;;;;;;32.17;9.85;;;6.90;99.90;;;;;;5060764;28;20037;-64
2022/01/29 00:32:17;;;;;;;35.83;10.65;;;6.90;99.90;;;;;;5046700;28;20029;-65
2022/01/29 00:34:43;;;;;;;24.35;7.93;;;7.00;99.90;;;;;;5049974;28;20033;-64
2022/01/29 00:37:09;;;;;;;28.55;9.00;;;6.90;99.90;;;;;;5054280;28;20102;-65
2022/01/29 00:39:35;;;;;;;22.33;7.80;;;7.00;99.90;;;;;;5054743;28;20049;-64
2022/01/29 00:42:01;;;;;;;20.60;8.77;;;7.00;99.90;;;;;;5047584;28;20036;-64
2022/01/29 00:44:27;;;;;;;24.67;9.75;;;7.00;99.90;;;;;;5054984;28;20048;-64
2022/01/29 00:46:52;;;;;;;17.95;5.18;;;7.00;99.90;;;;;;5061025;28;20037;-64
2022/01/29 00:49:18;;;;;;;28.17;9.73;;;7.00;99.90;;;;;;5055914;28;20495;-64
2022/01/29 00:51:44;;;;;;;19.90;8.30;;;7.00;99.90;;;;;;5062282;28;20048;-65
2022/01/29 00:54:10;;;;;;;15.98;6.25;;;7.00;99.90;;;;;;5072629;28;20040;-64
2022/01/29 00:56:35;;;;;;;27.77;7.90;;;6.90;99.90;;;;;;5059742;28;20036;-64
2022/01/29 00:59:01;;;;;;;19.50;9.40;;;6.90;99.90;;;;;;5059952;28;20075;-64
2022/01/29 01:01:27;;;;;;;25.95;8.52;;;6.90;99.90;;;;;;5059347;28;20060;-64
2022/01/29 01:03:52;;;;;;;13.98;5.53;;;6.90;99.90;;;;;;5044303;28;20048;-65
2022/01/29 01:06:18;;;;;;;13.80;7.20;;;6.90;99.90;;;;;;5067419;28;20091;-64
2022/01/29 01:08:44;;;;;;;20.40;8.20;;;6.90;99.90;;;;;;5068002;28;20033;-64
2022/01/29 01:11:10;;;;;;;16.05;7.25;;;6.90;99.90;;;;;;5066657;28;20036;-64
2022/01/29 01:13:36;;;;;;;15.95;5.22;;;6.90;99.90;;;;;;5026941;28;20497;-65
2022/01/29 01:16:02;;;;;;;21.50;8.32;;;6.90;99.90;;;;;;5060870;28;20114;-64
2022/01/29 01:18:28;;;;;;;18.02;8.45;;;6.90;99.90;;;;;;5067964;28;20493;-64
2022/01/29 01:20:54;;;;;;;12.70;5.18;;;7.00;99.90;;;;;;5049335;28;20075;-65
2022/01/29 01:23:20;;;;;;;14.70;6.45;;;7.00;99.90;;;;;;5066317;28;20033;-65
2022/01/29 01:25:46;;;;;;;10.55;5.85;;;7.00;99.90;;;;;;5066158;28;20120;-64
2022/01/29 01:28:12;;;;;;;14.30;5.60;;;7.00;99.90;;;;;;5067007;28;20331;-65
2022/01/29 01:30:38;;;;;;;13.35;6.45;;;7.00;99.90;;;;;;5067629;28;20506;-65
2022/01/29 01:33:04;;;;;;;14.45;6.82;;;7.10;99.90;;;;;;5047434;28;20079;-64
2022/01/29 01:35:36;;;;;;;14.52;6.40;;;7.10;99.90;;;;;;5061368;28;20051;-64
2022/01/29 01:38:29;;;;;;;19.90;5.97;;;7.10;99.90;;;;;;5048978;28;20059;-65
2022/01/29 01:40:54;;;;;;;9.30;5.82;;;7.10;99.90;;;;;;5064526;28;20061;-65
2022/01/29 01:43:20;;;;;;;5.43;3.05;;;7.10;99.90;;;;;;5049190;28;20415;-65
2022/01/29 01:45:46;;;;;;;16.23;5.82;;;7.20;99.90;;;;;;5065656;28;20041;-65
2022/01/29 01:48:11;;;;;;;30.20;9.02;;;7.20;99.90;;;;;;5067838;28;20051;-64
2022/01/29 01:50:37;;;;;;;15.43;7.05;;;7.20;99.90;;;;;;5048471;28;20032;-65
2022/01/29 01:53:04;;;;;;;18.45;7.22;;;7.20;99.90;;;;;;5065890;28;20044;-65
2022/01/29 01:55:31;;;;;;;14.90;6.00;;;7.20;99.90;;;;;;5066245;28;20057;-64
2022/01/29 01:57:57;;;;;;;22.90;8.15;;;7.20;99.90;;;;;;5065790;28;20548;-65
2022/01/29 02:00:27;;;;;;;16.50;5.93;;;7.30;99.90;;;;;;5049212;28;20063;-64
2022/01/29 02:02:53;;;;;;;19.90;7.35;;;7.30;99.90;;;;;;5047175;28;20518;-64
2022/01/29 02:05:19;;;;;;;15.25;5.43;;;7.30;99.90;;;;;;5065880;28;20056;-64
2022/01/29 02:07:46;;;;;;;17.52;6.43;;;7.30;99.90;;;;;;5066192;28;20040;-64
2022/01/29 02:10:13;;;;;;;13.43;5.35;;;7.40;99.90;;;;;;5066980;28;20084;-64
2022/01/29 02:12:57;;;;;;;35.90;9.25;;;7.40;99.90;;;;;;5066891;28;20049;-64
2022/01/29 02:15:23;;;;;;;17.88;8.73;;;7.40;99.90;;;;;;5059083;28;20124;-64
2022/01/29 02:17:49;;;;;;;23.52;9.57;;;7.40;99.90;;;;;;5063792;28;20042;-64
2022/01/29 02:20:17;;;;;;;14.52;4.50;;;7.50;99.90;;;;;;5065606;28;20047;-64
2022/01/29 02:22:44;;;;;;;19.92;6.57;;;7.50;99.90;;;;;;5066945;28;20052;-64
2022/01/29 02:25:34;;;;;;;25.10;9.05;;;7.50;99.90;;;;;;5042060;28;20041;-64
2022/01/29 02:28:13;;;;;;;19.57;6.33;;;7.50;99.90;;;;;;5063040;28;20040;-64
2022/01/29 02:30:44;;;;;;;17.92;5.68;;;7.50;99.90;;;;;;5066840;28;20036;-64
2022/01/29 02:33:13;;;;;;;13.93;5.47;;;7.50;99.90;;;;;;5047258;28;20083;-64
2022/01/29 02:35:41;;;;;;;14.65;5.60;;;7.60;99.90;;;;;;5065547;28;20223;-64
2022/01/29 02:38:08;;;;;;;22.58;5.75;;;7.60;99.90;;;;;;5064903;28;20114;-64
2022/01/29 02:40:38;;;;;;;14.43;4.93;;;7.60;99.90;;;;;;5066842;28;20084;-64
2022/01/29 02:43:27;;;;;;;27.65;9.02;;;7.60;99.90;;;;;;5065798;28;20111;-64
2022/01/29 02:45:53;;;;;;;16.77;6.35;;;7.60;99.90;;;;;;5061872;28;20053;-64
2022/01/29 02:48:23;;;;;;;15.77;7.32;;;7.60;99.90;;;;;;5062828;28;20517;-65
2022/01/29 02:50:50;;;;;;;22.95;7.57;;;7.70;99.90;;;;;;5063709;28;20040;-64
2022/01/29 02:53:16;;;;;;;26.25;8.23;;;7.70;99.90;;;;;;5066480;28;20098;-64
2022/01/29 02:55:42;;;;;;;6.80;3.83;;;7.70;99.90;;;;;;5044459;28;20049;-64
2022/01/29 02:58:08;;;;;;;10.15;4.38;;;7.70;99.90;;;;;;5059457;28;20055;-64
2022/01/29 03:00:34;;;;;;;9.25;4.32;;;7.80;99.90;;;;;;5066160;28;20049;-64
2022/01/29 03:03:00;;;;;;;16.38;6.30;;;7.70;99.90;;;;;;5064852;28;20202;-64
2022/01/29 03:05:27;;;;;;;19.60;5.57;;;7.80;99.90;;;;;;5048183;28;20398;-64
2022/01/29 03:07:53;;;;;;;15.40;5.63;;;7.80;99.90;;;;;;5061105;28;20449;-65
2022/01/29 03:10:18;;;;;;;25.95;5.50;;;7.80;99.90;;;;;;5065973;28;20041;-64
2022/01/29 03:12:44;;;;;;;32.28;9.88;;;7.80;99.90;;;;;;5064479;28;20045;-64
2022/01/29 03:15:12;;;;;;;27.05;6.07;;;7.80;99.90;;;;;;5056886;28;20117;-64
2022/01/29 03:17:38;;;;;;;13.88;6.15;;;7.80;99.90;;;;;;5066333;28;20478;-64
2022/01/29 03:20:05;;;;;;;14.95;4.38;;;7.80;99.90;;;;;;5064882;28;20044;-64
2022/01/29 03:22:30;;;;;;;28.52;8.13;;;7.80;99.90;;;;;;5065353;28;20036;-64
2022/01/29 03:24:56;;;;;;;15.18;4.85;;;7.90;99.90;;;;;;5063030;28;20037;-64
2022/01/29 03:27:22;;;;;;;22.50;6.90;;;7.80;99.90;;;;;;5048031;28;20048;-65
2022/01/29 03:29:48;;;;;;;13.32;4.80;;;7.80;99.90;;;;;;5065139;28;20064;-64
2022/01/29 03:32:14;;;;;;;17.92;6.53;;;7.80;99.90;;;;;;5065490;28;20040;-64
2022/01/29 03:34:41;;;;;;;15.20;4.95;;;7.80;99.90;;;;;;5047367;28;20627;-65
2022/01/29 03:37:06;;;;;;;16.77;5.97;;;7.90;99.90;;;;;;5061673;28;20556;-65
2022/01/29 03:39:35;;;;;;;7.43;3.80;;;7.90;99.90;;;;;;5058528;28;20062;-66
2022/01/29 03:42:05;;;;;;;11.65;4.10;;;7.90;99.90;;;;;;5063637;28;20044;-65
2022/01/29 03:44:31;;;;;;;16.52;5.10;;;7.90;99.90;;;;;;5066159;28;20069;-64
2022/01/29 03:46:57;;;;;;;16.05;5.60;;;7.90;99.90;;;;;;5062773;28;20082;-65
2022/01/29 03:49:22;;;;;;;16.88;6.97;;;7.90;99.90;;;;;;5066456;28;20040;-64
2022/01/29 03:51:48;;;;;;;8.27;3.72;;;7.90;99.90;;;;;;5046665;28;20542;-64
2022/01/29 03:54:14;;;;;;;23.77;9.00;;;7.90;99.90;;;;;;5059863;28;20036;-65
2022/01/29 03:56:40;;;;;;;18.85;6.35;;;7.90;99.90;;;;;;5051438;28;20372;-65
2022/01/29 03:59:05;;;;;;;23.00;8.05;;;8.00;99.90;;;;;;5068373;28;20068;-64
2022/01/29 04:01:31;;;;;;;20.83;6.97;;;8.00;99.90;;;;;;5069596;28;20040;-64
2022/01/29 04:03:57;;;;;;;15.52;6.20;;;8.00;99.90;;;;;;5068343;28;20044;-65
2022/01/29 04:06:24;;;;;;;27.13;8.68;;;8.00;99.90;;;;;;5045305;28;20048;-65
2022/01/29 04:08:50;;;;;;;12.50;5.03;;;8.10;99.90;;;;;;5065558;28;20509;-64
2022/01/29 04:11:16;;;;;;;11.07;4.00;;;8.10;99.90;;;;;;5050329;28;20044;-65
2022/01/29 04:13:47;;;;;;;8.15;4.55;;;8.10;99.90;;;;;;5068706;28;20514;-64
2022/01/29 04:16:15;;;;;;;8.55;3.33;;;8.20;99.90;;;;;;5049918;28;20052;-64
2022/01/29 04:18:41;;;;;;;19.30;6.45;;;8.20;99.90;;;;;;5069100;28;20114;-65
2022/01/29 04:21:07;;;;;;;13.00;4.78;;;8.20;99.90;;;;;;5049460;28;20124;-65
2022/01/29 04:23:34;;;;;;;13.18;6.32;;;8.20;99.90;;;;;;5067960;28;20447;-64
2022/01/29 04:26:04;;;;;;;14.25;6.18;;;8.20;99.90;;;;;;5067290;28;20048;-65
2022/01/29 04:28:34;;;;;;;8.02;4.35;;;8.20;99.90;;;;;;5069226;28;20425;-64
2022/01/29 04:31:07;;;;;;;16.33;7.05;;;8.30;99.90;;;;;;5068090;28;20056;-65
2022/01/29 04:33:33;;;;;;;22.42;7.03;;;8.30;99.90;;;;;;5066848;28;20449;-65
2022/01/29 04:36:03;;;;;;;13.90;6.63;;;8.30;99.90;;;;;;5068864;28;20040;-64
2022/01/29 04:38:30;;;;;;;5.63;3.25;;;8.30;99.90;;;;;;5067053;28;20094;-64
2022/01/29 04:41:03;;;;;;;8.27;4.97;;;8.30;99.90;;;;;;5068789;28;20040;-64
2022/01/29 04:43:29;;;;;;;21.75;7.65;;;8.30;99.90;;;;;;5063364;28;20474;-64
2022/01/29 04:45:56;;;;;;;26.02;8.48;;;8.30;99.90;;;;;;5068469;28;20062;-65
2022/01/29 04:48:22;;;;;;;14.75;6.10;;;8.30;99.90;;;;;;5067491;28;20542;-65
2022/01/29 04:50:48;;;;;;;18.27;5.97;;;8.30;99.90;;;;;;5068092;28;20083;-65
2022/01/29 04:53:13;;;;;;;7.28;3.47;;;8.30;99.90;;;;;;5066439;28;20453;-65
2022/01/29 04:55:39;;;;;;;23.27;6.63;;;8.40;99.90;;;;;;5064864;28;20037;-65
2022/01/29 04:58:05;;;;;;;9.40;5.10;;;8.30;99.90;;;;;;5057366;28;20135;-64
2022/01/29 05:00:32;;;;;;;15.60;7.55;;;8.40;99.90;;;;;;5067530;28;20601;-64
2022/01/29 05:03:07;;;;;;;17.85;6.28;;;8.40;99.90;;;;;;5068156;28;20050;-64
2022/01/29 05:05:33;;;;;;;18.90;6.82;;;8.40;99.90;;;;;;5066789;28;20056;-64
2022/01/29 05:07:59;;;;;;;10.02;5.13;;;8.30;99.90;;;;;;5050074;28;20054;-65
2022/01/29 05:10:24;;;;;;;12.65;4.38;;;8.40;99.90;;;;;;5067581;28;20494;-65
2022/01/29 05:15:25;;;;;;;10.75;5.88;;;8.40;99.90;;;;;;5066875;28;20385;-65
2022/01/29 05:28:48;;;;;;;6.13;3.40;;;8.50;99.90;;;;;;5066415;28;20045;-65
2022/01/29 05:31:14;;;;;;;8.07;4.15;;;8.50;99.90;;;;;;5043793;28;20097;-65
2022/01/29 05:33:40;;;;;;;14.30;5.80;;;8.50;99.90;;;;;;5067568;28;20072;-64
2022/01/29 05:36:05;;;;;;;7.28;3.75;;;8.50;99.90;;;;;;5067255;28;20518;-64
2022/01/29 05:38:34;;;;;;;12.40;4.32;;;8.50;99.90;;;;;;5062789;28;20095;-65
2022/01/29 05:41:03;;;;;;;12.23;4.18;;;8.60;99.90;;;;;;5066558;28;20048;-64
2022/01/29 05:43:29;;;;;;;4.20;3.55;;;8.60;99.90;;;;;;5065903;28;20472;-64
2022/01/29 05:45:54;;;;;;;13.75;6.10;;;8.60;99.90;;;;;;5066041;28;20087;-65
2022/01/29 05:48:20;;;;;;;11.35;4.93;;;8.60;99.90;;;;;;5064328;28;20045;-64
2022/01/29 05:50:46;;;;;;;7.43;4.55;;;8.60;99.90;;;;;;5064291;28;20032;-65
2022/01/29 05:53:12;;;;;;;7.65;4.43;;;8.60;99.90;;;;;;5065240;28;20119;-64
2022/01/29 05:55:38;;;;;;;10.65;5.03;;;8.60;99.90;;;;;;5066536;28;20035;-65
2022/01/29 05:58:03;;;;;;;9.77;3.63;;;8.60;99.90;;;;;;5066783;28;20509;-65
2022/01/29 06:00:29;;;;;;;16.58;7.20;;;8.60;99.90;;;;;;5058555;28;20036;-65
2022/01/29 06:03:06;;;;;;;9.02;4.28;;;8.60;99.90;;;;;;5041852;28;20058;-65
2022/01/29 06:05:33;;;;;;;8.75;4.68;;;8.60;99.90;;;;;;5055882;28;20040;-64
2022/01/29 06:07:59;;;;;;;7.35;3.83;;;8.60;99.90;;;;;;5054816;28;20033;-64
2022/01/29 06:10:25;;;;;;;19.38;6.35;;;8.60;99.90;;;;;;5055195;28;20041;-65
2022/01/29 06:13:12;;;;;;;17.63;6.63;;;8.50;99.90;;;;;;5065130;28;20043;-64
2022/01/29 06:15:42;;;;;;;12.23;5.28;;;8.50;99.90;;;;;;5067234;28;20119;-64
2022/01/29 06:18:15;;;;;;;9.57;4.22;;;8.60;99.90;;;;;;5047546;28;20044;-64
2022/01/29 06:20:41;;;;;;;16.27;6.70;;;8.50;99.90;;;;;;5043896;28;20051;-64
2022/01/29 06:23:07;;;;;;;9.98;3.88;;;8.60;99.90;;;;;;5065008;28;20125;-65
2022/01/29 06:25:33;;;;;;;7.88;4.22;;;8.60;99.90;;;;;;5048247;28;20117;-64
2022/01/29 06:27:59;;;;;;;12.85;5.78;;;8.60;99.90;;;;;;5048447;28;20041;-65
2022/01/29 06:30:24;;;;;;;4.50;2.55;;;8.60;99.90;;;;;;5062920;28;20487;-65
2022/01/29 06:32:51;;;;;;;7.30;3.17;;;8.50;99.90;;;;;;5062596;28;20386;-65
2022/01/29 06:35:16;;;;;;;18.50;8.32;;;8.50;99.90;;;;;;5046996;28;20043;-65
2022/01/29 06:37:42;;;;;;;14.07;7.50;;;8.60;99.90;;;;;;5066790;28;20056;-65
2022/01/29 06:40:09;;;;;;;16.35;7.72;;;8.60;99.90;;;;;;5031109;28;20127;-64
2022/01/29 06:42:34;;;;;;;5.25;3.42;;;8.60;99.90;;;;;;5042176;28;20136;-65
2022/01/29 06:45:00;;;;;;;14.82;7.72;;;8.60;99.90;;;;;;5065928;28;20124;-64
2022/01/29 06:47:26;;;;;;;11.27;5.20;;;8.60;99.90;;;;;;5066250;28;20479;-65
2022/01/29 06:49:52;;;;;;;12.18;4.55;;;8.60;99.90;;;;;;5048508;28;20052;-64
2022/01/29 06:52:18;;;;;;;11.35;4.90;;;8.60;99.90;;;;;;5059918;28;20379;-64
2022/01/29 06:54:43;;;;;;;6.53;3.78;;;8.60;99.90;;;;;;5066855;28;20055;-65
2022/01/29 06:57:09;;;;;;;8.32;3.50;;;8.70;99.90;;;;;;5047281;28;20079;-65
2022/01/29 06:59:35;;;;;;;5.40;3.67;;;8.70;99.90;;;;;;5043544;28;20048;-65
2022/01/29 07:02:01;;;;;;;6.95;4.55;;;8.70;99.90;;;;;;5047343;28;20467;-65
2022/01/29 07:04:26;;;;;;;18.48;9.80;;;8.70;99.90;;;;;;5064531;28;20041;-65
2022/01/29 07:06:52;;;;;;;6.20;4.20;;;8.70;99.90;;;;;;5061017;28;20059;-65
2022/01/29 07:09:18;;;;;;;8.02;3.95;;;8.70;99.90;;;;;;5065195;28;20111;-65
2022/01/29 07:11:45;;;;;;;12.10;4.45;;;8.80;99.90;;;;;;5048228;28;20487;-65
2022/01/29 07:14:16;;;;;;;6.75;3.72;;;8.80;99.90;;;;;;5065019;28;20415;-65
2022/01/29 07:16:43;;;;;;;13.13;5.60;;;8.80;99.90;;;;;;5057457;28;20045;-65
2022/01/29 07:19:09;;;;;;;13.32;4.55;;;8.80;99.90;;;;;;5064810;28;20458;-65
2022/01/29 07:21:36;;;;;;;12.82;4.05;;;8.70;99.90;;;;;;5065907;28;20040;-65
2022/01/29 07:24:02;;;;;;;19.35;7.93;;;8.80;99.90;;;;;;5072019;28;20412;-65
2022/01/29 07:26:28;;;;;;;5.75;2.97;;;8.70;99.90;;;;;;5064311;28;20546;-64
2022/01/29 07:28:53;;;;;;;12.13;7.65;;;8.70;99.90;;;;;;5066497;28;20124;-64
2022/01/29 07:31:20;;;;;;;6.85;3.53;;;8.70;99.90;;;;;;5068006;28;20497;-65
2022/01/29 07:33:46;;;;;;;5.35;3.33;;;8.70;99.90;;;;;;5063629;28;20045;-65
2022/01/29 07:36:11;;;;;;;6.70;3.17;;;8.70;99.90;;;;;;5048958;28;20044;-64
2022/01/29 07:38:37;;;;;;;6.40;3.28;;;8.70;99.90;;;;;;5069562;28;20416;-65
2022/01/29 07:41:03;;;;;;;5.88;3.83;;;8.70;99.90;;;;;;5068555;28;20041;-65
2022/01/29 07:43:29;;;;;;;4.75;3.05;;;8.70;99.90;;;;;;5069051;28;20056;-65
2022/01/29 07:45:54;;;;;;;5.82;3.63;;;8.70;99.90;;;;;;5069488;28;20485;-65
2022/01/29 07:48:20;;;;;;;11.77;6.15;;;8.70;99.90;;;;;;5066918;28;20036;-65
2022/01/29 07:50:46;;;;;;;4.80;3.08;;;8.70;99.90;;;;;;5069913;28;20513;-65
2022/01/29 07:53:12;;;;;;;10.93;4.15;;;8.70;99.90;;;;;;5050251;28;20151;-65
2022/01/29 07:55:38;;;;;;;8.65;4.22;;;8.70;99.90;;;;;;5051086;28;20048;-65
2022/01/29 07:58:07;;;;;;;4.93;3.10;;;8.70;99.90;;;;;;5038813;28;20045;-65
2022/01/29 08:00:33;;;;;;;11.80;4.82;;;8.70;99.90;;;;;;5067503;28;20041;-65
2022/01/29 08:02:59;;;;;;;6.03;3.70;;;8.80;99.90;;;;;;5061867;28;20048;-65
2022/01/29 08:05:25;;;;;;;4.35;3.15;;;8.80;99.90;;;;;;5058778;28;20056;-65
2022/01/29 08:07:51;;;;;;;3.25;2.78;;;8.80;99.90;;;;;;5053607;28;20186;-64
2022/01/29 08:10:16;;;;;;;3.70;2.97;;;8.80;99.90;;;;;;5040855;28;20055;-65
2022/01/29 08:12:42;;;;;;;18.50;6.22;;;8.80;99.90;;;;;;5064895;28;20039;-65
2022/01/29 08:15:09;;;;;;;8.18;4.88;;;8.80;99.90;;;;;;5046027;28;20064;-65
2022/01/29 08:17:34;;;;;;;7.60;3.17;;;8.70;99.90;;;;;;5058526;28;20399;-65
2022/01/29 08:20:00;;;;;;;7.90;3.78;;;8.70;99.90;;;;;;5067375;28;20049;-65
2022/01/29 08:22:26;;;;;;;10.65;4.75;;;8.70;99.90;;;;;;5050815;28;20404;-65
2022/01/29 08:24:53;;;;;;;13.43;5.93;;;8.70;99.90;;;;;;5040815;28;20091;-64
2022/01/29 08:27:19;;;;;;;7.28;3.40;;;8.70;99.90;;;;;;5057543;28;20054;-65
2022/01/29 08:29:45;;;;;;;8.40;5.45;;;8.70;99.90;;;;;;5059781;28;20036;-65
2022/01/29 08:32:14;;;;;;;6.28;2.05;;;8.70;99.90;;;;;;5071523;28;20037;-65
2022/01/29 08:34:42;;;;;;;10.45;5.55;;;8.70;99.90;;;;;;5059833;28;20834;-64
2022/01/29 08:37:09;;;;;;;11.93;4.07;;;8.70;99.90;;;;;;5056600;28;20094;-65
2022/01/29 08:39:36;;;;;;;17.33;5.65;;;8.70;99.90;;;;;;5071075;28;20115;-64
2022/01/29 08:42:03;;;;;;;14.48;5.05;;;8.80;99.90;;;;;;5042747;28;20398;-64
2022/01/29 08:44:29;;;;;;;5.25;2.97;;;8.80;99.90;;;;;;5059629;28;20044;-65
2022/01/29 08:46:54;;;;;;;6.70;2.60;;;8.90;99.90;;;;;;5064792;28;20036;-65
2022/01/29 08:49:21;;;;;;;11.80;5.65;;;8.90;99.90;;;;;;5049174;28;20051;-65
2022/01/29 08:51:47;;;;;;;7.97;2.67;;;8.90;99.90;;;;;;5049429;28;20081;-65
2022/01/29 08:54:13;;;;;;;5.32;2.22;;;9.00;99.90;;;;;;5064389;28;20785;-65
2022/01/29 08:56:39;;;;;;;7.80;3.03;;;9.10;99.90;;;;;;5066011;28;20080;-65
2022/01/29 08:59:05;;;;;;;5.68;2.85;;;9.10;99.90;;;;;;5047343;28;20052;-65
2022/01/29 09:01:30;;;;;;;11.02;4.78;;;9.20;99.90;;;;;;5048710;28;20174;-64
2022/01/29 09:03:56;;;;;;;4.07;2.30;;;9.20;99.90;;;;;;5066137;28;20072;-65
2022/01/29 09:06:22;;;;;;;6.13;2.13;;;9.20;99.90;;;;;;5059039;28;20045;-65
2022/01/29 09:08:50;;;;;;;3.67;3.00;;;9.30;99.90;;;;;;5063026;28;20041;-65
2022/01/29 09:11:17;;;;;;;4.43;2.05;;;9.30;99.90;;;;;;5048638;28;20541;-65
2022/01/29 09:13:43;;;;;;;12.55;4.30;;;9.40;99.90;;;;;;5026752;28;20040;-64
2022/01/29 09:16:10;;;;;;;6.70;3.05;;;9.40;99.90;;;;;;5057379;28;20524;-65
2022/01/29 09:18:36;;;;;;;3.00;1.95;;;9.50;99.90;;;;;;5048011;28;20045;-65
2022/01/29 09:21:02;;;;;;;8.32;2.67;;;9.50;99.90;;;;;;5066832;28;20449;-64
2022/01/29 09:23:29;;;;;;;14.70;4.25;;;9.50;99.90;;;;;;5065692;28;20531;-65
2022/01/29 09:25:55;;;;;;;9.05;3.20;;;9.50;99.90;;;;;;5065885;28;20070;-65
2022/01/29 09:28:21;;;;;;;7.28;2.83;;;9.50;99.90;;;;;;5047977;28;20075;-65
2022/01/29 09:30:48;;;;;;;9.65;2.95;;;9.50;99.90;;;;;;5066609;28;20048;-65
2022/01/29 09:33:15;;;;;;;9.30;3.28;;;9.50;99.90;;;;;;5065546;28;20422;-65
2022/01/29 09:35:42;;;;;;;2.95;2.15;;;9.50;99.90;;;;;;5066517;28;20512;-65
2022/01/29 09:38:09;;;;;;;8.68;2.58;;;9.50;99.90;;;;;;5063451;28;20114;-65
2022/01/29 09:40:35;;;;;;;7.35;2.78;;;9.50;99.90;;;;;;5063473;28;20047;-65
2022/01/29 09:43:02;;;;;;;5.13;2.17;;;9.60;99.90;;;;;;5066666;28;20089;-65
2022/01/29 09:45:28;;;;;;;4.03;2.03;;;9.70;99.90;;;;;;5065106;28;20040;-66
2022/01/29 09:48:01;;;;;;;5.90;2.60;;;9.60;99.90;;;;;;5063376;28;20060;-65
2022/01/29 09:50:32;;;;;;;5.45;1.77;;;9.70;99.90;;;;;;5064590;28;20044;-65
2022/01/29 09:52:59;;;;;;;6.50;2.13;;;9.70;99.90;;;;;;5024910;28;20044;-65
2022/01/29 09:55:26;;;;;;;3.42;1.65;;;9.70;99.90;;;;;;5062464;28;20063;-65
2022/01/29 09:57:53;;;;;;;6.97;2.40;;;9.80;99.90;;;;;;5061039;28;20052;-65
2022/01/29 10:00:19;;;;;;;4.18;1.92;;;9.80;99.90;;;;;;5046975;28;20032;-65
2022/01/29 10:03:05;;;;;;;1.58;1.45;;;9.80;99.90;;;;;;5063007;28;20048;-65
2022/01/29 10:05:35;;;;;;;8.95;3.13;;;9.80;99.90;;;;;;5044422;28;20044;-65
2022/01/29 10:08:01;;;;;;;2.60;1.42;;;9.80;99.90;;;;;;5047053;28;20052;-65
2022/01/29 10:10:27;;;;;;;2.55;1.38;;;9.90;99.90;;;;;;5033474;28;20057;-65
2022/01/29 10:12:53;;;;;;;6.70;2.53;;;9.80;99.90;;;;;;5065113;28;20505;-65
2022/01/29 10:15:22;;;;;;;6.20;2.40;;;9.90;99.90;;;;;;5060426;28;20044;-65
2022/01/29 10:17:55;;;;;;;2.80;1.67;;;9.90;99.90;;;;;;5063138;28;20086;-65
2022/01/29 10:20:24;;;;;;;4.55;1.80;;;9.90;99.90;;;;;;5054110;28;20395;-65
2022/01/29 10:22:53;;;;;;;11.15;2.55;;;9.90;99.90;;;;;;5053566;28;20040;-65
2022/01/29 10:25:22;;;;;;;2.60;1.70;;;9.90;99.90;;;;;;5049999;28;20055;-65
2022/01/29 10:28:17;;;;;;;9.00;1.75;;;9.90;99.90;;;;;;5054711;28;20033;-65
2022/01/29 10:30:49;;;;;;;2.83;1.27;;;9.90;99.90;;;;;;5052070;28;20045;-65
2022/01/29 10:33:16;;;;;;;3.25;1.35;;;9.90;99.90;;;;;;5057401;28;20360;-65
2022/01/29 10:35:43;;;;;;;6.95;2.35;;;10.00;99.90;;;;;;5033250;28;20040;-65
2022/01/29 10:38:09;;;;;;;7.35;2.10;;;10.00;99.90;;;;;;5052450;28;20127;-65
2022/01/29 10:40:35;;;;;;;1.58;1.02;;;10.00;99.90;;;;;;5050875;28;20112;-65
2022/01/29 10:43:05;;;;;;;3.10;1.10;;;10.00;99.90;;;;;;5030083;28;20048;-64
2022/01/29 10:45:35;;;;;;;3.83;1.15;;;9.90;99.90;;;;;;5077014;28;20059;-65
2022/01/29 10:48:03;;;;;;;7.60;2.03;;;9.90;99.90;;;;;;5056878;28;20402;-64
2022/01/29 10:50:29;;;;;;;1.33;1.20;;;9.90;99.90;;;;;;5048657;28;20052;-65
2022/01/29 10:52:58;;;;;;;2.85;1.45;;;9.90;99.90;;;;;;5037738;28;20045;-65
2022/01/29 10:55:24;;;;;;;1.55;0.93;;;10.00;99.90;;;;;;5059080;28;20049;-65
2022/01/29 10:57:51;;;;;;;3.65;1.15;;;10.00;99.90;;;;;;5051355;28;20074;-65
2022/01/29 11:00:26;;;;;;;2.83;1.10;;;10.00;99.90;;;;;;5052900;28;20049;-65
2022/01/29 11:02:54;;;;;;;1.85;0.95;;;10.00;99.90;;;;;;5031616;28;20041;-65
2022/01/29 11:05:24;;;;;;;3.00;1.50;;;10.10;99.90;;;;;;5049892;28;20077;-64
2022/01/29 11:07:53;;;;;;;5.10;1.20;;;10.10;99.90;;;;;;5059369;28;20044;-64
2022/01/29 11:10:19;;;;;;;11.18;1.60;;;10.10;99.90;;;;;;5048178;28;20083;-64
2022/01/29 11:12:48;;;;;;;5.57;1.35;;;10.20;99.90;;;;;;5068605;28;20044;-64
2022/01/29 11:15:18;;;;;;;4.28;1.17;;;10.10;99.90;;;;;;5068823;28;20055;-64
2022/01/29 11:17:45;;;;;;;3.17;0.93;;;10.20;99.90;;;;;;5068949;28;20528;-65
2022/01/29 11:20:12;;;;;;;2.22;0.70;;;10.20;99.90;;;;;;5070273;28;20208;-65
2022/01/29 11:22:42;;;;;;;6.10;1.17;;;10.20;99.90;;;;;;5070116;28;20044;-65
2022/01/29 11:25:16;;;;;;;6.22;0.98;;;10.20;99.90;;;;;;5064293;28;20048;-65
2022/01/29 11:27:42;;;;;;;2.83;0.90;;;10.30;99.90;;;;;;5047888;28;20123;-65
2022/01/29 11:30:13;;;;;;;1.40;0.85;;;10.30;99.90;;;;;;5072227;28;20044;-65
2022/01/29 11:32:44;;;;;;;4.97;1.00;;;10.30;99.90;;;;;;5069454;28;20036;-65
2022/01/29 11:35:13;;;;;;;1.30;0.70;;;10.30;99.90;;;;;;5066178;28;20033;-65
2022/01/29 11:37:40;;;;;;;3.83;1.33;;;10.30;99.90;;;;;;5064603;28;20131;-65
2022/01/29 11:40:28;;;;;;;4.22;0.80;;;10.30;99.90;;;;;;5042288;28;20175;-65
2022/01/29 11:43:13;;;;;;;2.50;0.82;;;10.20;99.90;;;;;;5063433;28;20051;-64
2022/01/29 11:46:04;;;;;;;3.08;0.93;;;10.20;99.90;;;;;;5065315;28;20127;-65
2022/01/29 11:48:35;;;;;;;6.82;0.90;;;10.20;99.90;;;;;;5063097;28;20036;-65
2022/01/29 11:51:05;;;;;;;5.88;1.15;;;10.30;99.90;;;;;;5066727;28;20040;-65
2022/01/29 11:53:49;;;;;;;4.13;0.70;;;10.30;99.90;;;;;;5049629;28;20037;-65
2022/01/29 11:56:40;;;;;;;9.23;1.38;;;10.30;99.90;;;;;;5050378;28;20069;-65
2022/01/29 11:59:18;;;;;;;3.40;1.05;;;10.30;99.90;;;;;;5064881;28;20392;-65
2022/01/29 12:01:45;;;;;;;4.75;1.20;;;10.40;99.90;;;;;;5067641;28;20040;-65
2022/01/29 12:04:11;;;;;;;4.22;1.10;;;10.40;99.90;;;;;;5062999;28;20101;-65
2022/01/29 12:06:43;;;;;;;0.50;0.50;;;10.50;99.90;;;;;;5064881;28;20049;-65
2022/01/29 12:09:14;;;;;;;7.53;1.30;;;10.50;99.90;;;;;;5067559;28;20044;-65
2022/01/29 12:11:42;;;;;;;4.78;1.38;;;10.40;99.90;;;;;;5067790;28;20048;-65
2022/01/29 12:14:15;;;;;;;3.13;1.13;;;10.50;99.90;;;;;;5066923;28;20119;-65
2022/01/29 12:16:55;;;;;;;7.90;1.13;;;10.50;99.90;;;;;;5065161;28;20048;-65
2022/01/29 12:19:41;;;;;;;6.53;1.17;;;10.60;99.90;;;;;;5068729;28;20250;-65
2022/01/29 12:22:23;;;;;;;4.57;1.02;;;10.60;99.90;;;;;;5063757;28;20103;-64
2022/01/29 12:24:51;;;;;;;2.70;0.75;;;10.60;99.90;;;;;;5047502;28;20048;-65
2022/01/29 12:27:17;;;;;;;2.92;0.82;;;10.60;99.90;;;;;;5061427;28;20041;-65
2022/01/29 12:29:43;;;;;;;3.92;1.20;;;10.70;99.90;;;;;;5064510;28;20087;-65
2022/01/29 12:32:10;;;;;;;5.15;1.08;;;10.70;99.90;;;;;;5064763;28;20079;-65
2022/01/29 12:34:37;;;;;;;3.40;0.77;;;10.70;99.90;;;;;;5045372;28;20033;-65
2022/01/29 12:37:22;;;;;;;5.85;1.20;;;10.70;99.90;;;;;;5065679;28;20052;-65
2022/01/29 12:39:49;;;;;;;4.65;1.08;;;10.70;99.90;;;;;;5044895;28;20115;-65
2022/01/29 12:44:56;;;;;;;5.97;0.90;;;10.80;99.90;;;;;;5057340;28;20048;-65
2022/01/29 12:47:27;;;;;;;5.97;1.20;;;10.80;99.90;;;;;;5065909;28;20090;-65
2022/01/29 12:49:53;;;;;;;6.28;0.68;;;10.90;99.90;;;;;;5058212;28;20045;-65
2022/01/29 12:52:19;;;;;;;1.35;0.57;;;10.80;99.90;;;;;;5048069;28;20421;-65
2022/01/29 12:54:59;;;;;;;1.67;0.65;;;10.80;99.90;;;;;;5057135;28;20994;-65
2022/01/29 12:57:44;;;;;;;7.90;2.05;;;10.90;99.90;;;;;;5055254;28;20048;-65
2022/01/29 13:00:15;;;;;;;4.43;1.02;;;10.80;99.90;;;;;;5057426;28;20395;-65
2022/01/29 13:02:42;;;;;;;7.18;1.50;;;10.90;99.90;;;;;;5067046;28;20040;-65
2022/01/29 13:05:08;;;;;;;3.45;0.90;;;10.90;99.90;;;;;;5064252;28;20517;-65
2022/01/29 13:07:35;;;;;;;5.97;1.67;;;10.90;99.90;;;;;;5058291;28;20047;-64
2022/01/29 13:10:04;;;;;;;5.35;1.35;;;10.80;99.90;;;;;;5048042;28;20087;-64